createdAt,value
2022-12-16T00:04:00.134Z,71.23
2022-12-16T00:09:31.209Z,71.34
2022-12-16T00:15:02.274Z,71.26
2022-12-16T00:20:33.364Z,71.42
2022-12-16T00:26:04.679Z,71.43
2022-12-16T00:31:35.879Z,71.17
2022-12-16T00:37:07.051Z,71.43
2022-12-16T00:42:38.560Z,71.43
2022-12-16T00:48:09.971Z,71.70
2022-12-16T00:53:41.505Z,71.75
2022-12-16T00:59:12.643Z,71.79
2022-12-16T01:04:43.711Z,71.72
2022-12-16T01:10:14.938Z,71.75
2022-12-16T01:15:46.119Z,71.96
2022-12-16T01:21:17.173Z,71.53
2022-12-16T01:26:49.044Z,71.52
2022-12-16T01:32:20.629Z,71.74
2022-12-16T01:37:51.833Z,71.79
2022-12-16T01:43:29.992Z,71.70
2022-12-16T01:49:05.091Z,71.45
2022-12-16T01:54:45.710Z,71.57
2022-12-16T02:00:16.931Z,71.91
2022-12-16T02:05:49.153Z,71.55
2022-12-16T02:11:29.397Z,71.70
2022-12-16T02:17:15.525Z,71.46
2022-12-16T02:23:21.961Z,71.48
2022-12-16T02:29:07.919Z,71.77
2022-12-16T02:35:02.153Z,71.85
2022-12-16T02:40:41.076Z,71.77
2022-12-16T02:46:12.209Z,71.89
2022-12-16T02:51:43.434Z,71.76
2022-12-16T02:57:23.901Z,71.45
2022-12-16T03:03:07.437Z,71.78
2022-12-16T03:08:41.226Z,71.94
2022-12-16T03:14:15.930Z,71.64
2022-12-16T03:20:19.915Z,71.59
2022-12-16T03:25:52.127Z,72.03
2022-12-16T03:31:32.834Z,71.87
2022-12-16T03:37:07.550Z,71.75
2022-12-16T03:42:39.725Z,71.90
2022-12-16T03:48:14.181Z,71.50
2022-12-16T03:53:45.864Z,71.72
2022-12-16T03:59:17.008Z,72.17
2022-12-16T04:04:48.376Z,71.68
2022-12-16T04:10:42.775Z,71.84
2022-12-16T04:16:35.474Z,71.84
2022-12-16T04:22:31.356Z,72.08
2022-12-16T04:28:02.867Z,71.71
2022-12-16T04:33:52.724Z,72.08
2022-12-16T04:39:42.656Z,71.89
2022-12-16T04:45:32.708Z,71.95
2022-12-16T04:51:22.787Z,71.94
2022-12-16T04:57:12.785Z,72.32
2022-12-16T05:03:02.962Z,71.92
2022-12-16T05:08:52.506Z,72.13
2022-12-16T05:14:42.749Z,71.85
2022-12-16T05:26:59.939Z,71.97
2022-12-16T05:32:54.494Z,71.93
2022-12-16T05:38:46.018Z,72.07
2022-12-16T05:44:35.623Z,71.79
2022-12-16T05:50:26.148Z,72.08
2022-12-16T05:56:22.337Z,72.08
2022-12-16T06:02:12.519Z,72.16
2022-12-16T06:08:10.042Z,72.14
2022-12-16T06:14:00.046Z,72.12
2022-12-16T06:19:50.165Z,72.46
2022-12-16T06:25:39.852Z,71.92
2022-12-16T06:31:30.090Z,72.14
2022-12-16T06:37:19.878Z,71.92
2022-12-16T06:43:09.860Z,72.04
2022-12-16T06:49:00.087Z,72.24
2022-12-16T06:54:49.990Z,72.01
2022-12-16T07:00:40.198Z,71.84
2022-12-16T07:06:31.571Z,72.04
2022-12-16T07:12:21.311Z,71.98
2022-12-16T07:18:11.392Z,71.90
2022-12-16T07:24:01.180Z,71.91
2022-12-16T07:29:51.287Z,72.26
2022-12-16T07:35:42.377Z,72.19
2022-12-16T07:41:32.464Z,72.02
2022-12-16T07:47:22.470Z,71.87
2022-12-16T07:53:19.064Z,71.82
2022-12-16T07:59:08.906Z,72.05
2022-12-16T08:04:59.056Z,72.05
2022-12-16T08:10:48.809Z,71.79
2022-12-16T08:16:38.968Z,72.02
2022-12-16T08:22:28.888Z,71.92
2022-12-16T08:28:18.971Z,72.15
2022-12-16T08:34:09.030Z,72.34
2022-12-16T08:40:25.600Z,71.96
2022-12-16T08:46:12.333Z,72.12
2022-12-16T08:52:02.021Z,72.27
2022-12-16T08:57:52.379Z,72.35
2022-12-16T09:03:42.571Z,72.14
2022-12-16T09:09:32.584Z,72.15
2022-12-16T09:15:22.733Z,72.03
2022-12-16T09:21:12.483Z,72.40
2022-12-16T09:27:02.458Z,72.44
2022-12-16T09:32:52.328Z,72.47
2022-12-16T09:38:42.921Z,72.56
2022-12-16T09:45:00.674Z,72.83
2022-12-16T09:50:50.523Z,73.05
2022-12-16T09:56:49.355Z,72.59
2022-12-16T10:02:39.709Z,72.58
2022-12-16T10:09:17.451Z,72.52
2022-12-16T10:15:34.399Z,73.18
2022-12-16T10:21:26.657Z,72.73
2022-12-16T10:27:25.071Z,73.07
2022-12-16T10:33:16.111Z,72.86
2022-12-16T10:39:10.505Z,73.29
2022-12-16T10:45:11.285Z,72.79
2022-12-16T10:51:00.911Z,72.97
2022-12-16T10:57:12.186Z,72.93
2022-12-16T11:03:02.375Z,73.07
2022-12-16T11:08:55.633Z,72.93
2022-12-16T11:21:00.362Z,73.11
2022-12-16T11:26:52.018Z,73.07
2022-12-16T11:32:45.080Z,73.49
2022-12-16T11:38:39.615Z,73.33
2022-12-16T11:44:36.964Z,73.06
2022-12-16T11:50:30.727Z,73.22
2022-12-16T11:56:20.797Z,73.33
2022-12-16T12:02:22.409Z,73.53
2022-12-16T12:08:29.602Z,73.29
2022-12-16T12:14:45.976Z,73.36
2022-12-16T12:20:57.542Z,72.95
2022-12-16T12:26:51.117Z,73.56
2022-12-16T12:33:23.288Z,73.54
2022-12-16T12:39:27.221Z,73.35
2022-12-16T12:45:20.112Z,73.34
2022-12-16T12:51:29.175Z,73.50
2022-12-16T12:57:21.187Z,73.38
2022-12-16T13:03:23.519Z,73.48
2022-12-16T13:09:15.451Z,73.26
2022-12-16T13:15:24.385Z,73.67
2022-12-16T13:21:16.551Z,73.93
2022-12-16T13:27:19.975Z,73.62
2022-12-16T13:33:21.223Z,73.93
2022-12-16T13:39:14.362Z,73.84
2022-12-16T13:45:05.320Z,73.90
2022-12-16T13:50:55.302Z,73.62
2022-12-16T13:56:52.530Z,73.46
2022-12-16T14:02:50.366Z,73.71
2022-12-16T14:08:42.921Z,74.00
2022-12-16T14:14:38.506Z,73.71
2022-12-16T14:21:08.864Z,73.78
2022-12-16T14:26:58.812Z,73.59
2022-12-16T14:32:52.256Z,73.47
2022-12-16T14:38:47.688Z,73.47
2022-12-16T14:44:42.620Z,73.76
2022-12-16T14:50:41.707Z,73.70
2022-12-16T14:56:38.914Z,73.30
2022-12-16T15:02:40.625Z,73.29
2022-12-16T15:08:31.264Z,73.71
2022-12-16T15:14:21.845Z,73.48
2022-12-16T15:20:12.205Z,73.67
2022-12-16T15:26:08.425Z,73.74
2022-12-16T15:32:03.199Z,73.74
2022-12-16T15:38:04.116Z,73.73
2022-12-16T15:43:58.257Z,73.90
2022-12-16T15:49:56.888Z,73.35
2022-12-16T15:55:51.049Z,73.43
2022-12-16T16:01:42.604Z,73.82
2022-12-16T16:07:39.721Z,73.71
2022-12-16T16:13:30.145Z,73.54
2022-12-16T16:19:20.552Z,73.50
2022-12-16T16:25:10.843Z,73.88
2022-12-16T16:31:01.776Z,73.63
2022-12-16T16:36:51.923Z,73.58
2022-12-16T16:42:41.805Z,73.53
2022-12-16T16:48:33.822Z,73.96
2022-12-16T16:54:23.906Z,73.74
2022-12-16T17:00:13.691Z,73.75
2022-12-16T17:06:03.835Z,73.79
2022-12-16T17:11:53.974Z,73.48
2022-12-16T17:17:43.667Z,73.83
2022-12-16T17:23:33.995Z,73.80
2022-12-16T17:29:24.371Z,73.59
2022-12-16T17:35:14.248Z,73.92
2022-12-16T17:41:10.560Z,73.83
2022-12-16T17:47:00.779Z,73.90
2022-12-16T17:52:50.664Z,73.84
2022-12-16T17:58:40.738Z,73.70
2022-12-16T18:04:30.598Z,73.94
2022-12-16T18:10:20.526Z,73.84
2022-12-16T18:16:11.419Z,73.64
2022-12-16T18:22:01.391Z,73.94
2022-12-16T18:27:51.817Z,73.96
2022-12-16T18:33:41.722Z,74.12
2022-12-16T18:39:31.639Z,74.11
2022-12-16T18:45:21.690Z,73.87
2022-12-16T18:51:13.233Z,73.98
2022-12-16T18:57:03.071Z,73.75
2022-12-16T19:02:53.635Z,73.73
2022-12-16T19:08:43.633Z,73.87
2022-12-16T19:14:33.792Z,73.66
2022-12-16T19:20:28.609Z,73.64
2022-12-16T19:26:20.996Z,73.74
2022-12-16T19:32:11.479Z,73.81
2022-12-16T19:38:01.564Z,73.82
2022-12-16T19:43:51.344Z,73.67
2022-12-16T19:49:44.594Z,73.66
2022-12-16T19:55:34.855Z,73.68
2022-12-16T20:01:27.998Z,73.59
2022-12-16T20:07:23.041Z,73.59
2022-12-16T20:13:15.651Z,73.87
2022-12-16T20:19:08.548Z,73.92
2022-12-16T20:24:59.403Z,73.77
2022-12-16T20:30:49.609Z,73.78
2022-12-16T20:36:39.489Z,73.69
2022-12-16T20:42:29.245Z,73.64
2022-12-16T20:48:19.077Z,73.55
2022-12-16T20:54:09.451Z,73.69
2022-12-16T20:59:59.733Z,73.38
2022-12-16T21:05:49.749Z,73.47
2022-12-16T21:11:39.796Z,73.48
2022-12-16T21:17:29.903Z,73.45
2022-12-16T21:23:21.414Z,73.61
2022-12-16T21:29:11.265Z,73.67
2022-12-16T21:35:01.310Z,73.72
2022-12-16T21:40:51.732Z,73.88
2022-12-16T21:46:41.874Z,73.63
2022-12-16T21:52:31.877Z,73.59
2022-12-16T21:58:22.060Z,73.31
2022-12-16T22:04:12.052Z,73.14
2022-12-16T22:10:02.033Z,73.24
2022-12-16T22:15:51.958Z,73.39
2022-12-16T22:21:42.155Z,73.11
2022-12-16T22:27:32.447Z,73.01
2022-12-16T22:33:22.269Z,73.13
2022-12-16T22:39:12.619Z,73.36
2022-12-16T22:45:02.297Z,73.01
2022-12-16T22:50:54.804Z,72.83
2022-12-16T22:56:46.194Z,72.88
2022-12-16T23:02:36.192Z,72.84
2022-12-16T23:08:29.390Z,73.13
2022-12-16T23:14:19.512Z,73.12
2022-12-16T23:20:09.663Z,73.44
2022-12-16T23:26:00.014Z,72.87
2022-12-16T23:31:50.365Z,73.12
2022-12-16T23:37:40.307Z,72.96
2022-12-16T23:43:30.522Z,73.14
2022-12-16T23:49:20.544Z,72.86
2022-12-16T23:55:10.379Z,72.90
